createdAt,value
2022-10-10T00:00:06.830Z,101591.73
2022-10-10T00:02:55.829Z,101594.04
2022-10-10T00:05:24.859Z,101592.96
2022-10-10T00:07:53.689Z,101595.95
2022-10-10T00:10:22.939Z,101604.30
2022-10-10T00:12:52.554Z,101598.67
2022-10-10T00:15:21.765Z,101605.23
2022-10-10T00:17:51.246Z,101608.98
2022-10-10T00:20:20.745Z,101610.45
2022-10-10T00:22:49.900Z,101612.06
2022-10-10T00:25:19.164Z,101607.70
2022-10-10T00:27:48.231Z,101608.63
2022-10-10T00:30:17.407Z,101607.26
2022-10-10T00:32:46.486Z,101608.34
2022-10-10T00:35:15.408Z,101616.69
2022-10-10T00:37:44.205Z,101621.11
2022-10-10T00:40:13.190Z,101618.48
2022-10-10T00:42:42.058Z,101622.77
2022-10-10T00:45:26.178Z,101625.63
2022-10-10T00:48:00.468Z,101627.40
2022-10-10T00:50:31.401Z,101633.23
2022-10-10T00:53:01.094Z,101634.66
2022-10-10T00:55:30.307Z,101628.27
2022-10-10T00:57:59.562Z,101636.26
2022-10-10T01:00:28.638Z,101637.37
2022-10-10T01:02:57.548Z,101641.08
2022-10-10T01:05:26.727Z,101638.61
2022-10-10T01:07:56.300Z,101637.26
2022-10-10T01:10:25.548Z,101638.36
2022-10-10T01:13:05.010Z,101637.35
2022-10-10T01:15:46.185Z,101635.59
2022-10-10T01:18:24.503Z,101635.77
2022-10-10T01:21:09.100Z,101638.06
2022-10-10T01:24:12.335Z,101637.58
2022-10-10T01:27:12.355Z,101636.55
2022-10-10T01:29:45.663Z,101645.42
2022-10-10T01:32:23.187Z,101642.94
2022-10-10T01:35:01.791Z,101642.58
2022-10-10T01:37:40.536Z,101646.87
2022-10-10T01:40:18.000Z,101654.36
2022-10-10T01:42:51.794Z,101660.77
2022-10-10T01:45:21.603Z,101660.27
2022-10-10T01:47:51.267Z,101660.96
2022-10-10T01:50:23.558Z,101658.69
2022-10-10T01:53:06.076Z,101655.88
2022-10-10T01:55:48.075Z,101656.05
2022-10-10T01:58:37.140Z,101662.41
2022-10-10T02:01:14.969Z,101664.76
2022-10-10T02:03:47.985Z,101669.02
2022-10-10T02:06:23.845Z,101672.20
2022-10-10T02:08:57.780Z,101668.52
2022-10-10T02:11:30.475Z,101671.89
2022-10-10T02:14:03.573Z,101669.84
2022-10-10T02:16:37.529Z,101668.98
2022-10-10T02:19:10.495Z,101674.08
2022-10-10T02:21:40.501Z,101674.44
2022-10-10T02:24:11.982Z,101680.27
2022-10-10T02:26:44.844Z,101676.03
2022-10-10T02:29:20.008Z,101678.88
2022-10-10T02:31:55.500Z,101680.15
2022-10-10T02:34:28.188Z,101682.14
2022-10-10T02:36:59.662Z,101687.10
2022-10-10T02:39:33.296Z,101684.45
2022-10-10T02:42:03.548Z,101684.85
2022-10-10T02:44:33.457Z,101687.55
2022-10-10T02:47:03.111Z,101693.71
2022-10-10T02:49:34.037Z,101693.05
2022-10-10T02:52:03.643Z,101695.55
2022-10-10T02:54:32.702Z,101696.80
2022-10-10T02:57:01.726Z,101697.52
2022-10-10T02:59:30.499Z,101700.71
2022-10-10T03:01:59.441Z,101705.65
2022-10-10T03:04:28.761Z,101708.30
2022-10-10T03:06:57.722Z,101708.49
2022-10-10T03:09:26.718Z,101711.69
2022-10-10T03:11:55.773Z,101712.41
2022-10-10T03:14:24.552Z,101715.58
2022-10-10T03:16:53.423Z,101719.14
2022-10-10T03:19:22.587Z,101717.73
2022-10-10T03:21:51.464Z,101724.27
2022-10-10T03:24:20.506Z,101730.29
2022-10-10T03:26:49.394Z,101736.84
2022-10-10T03:29:18.193Z,101731.95
2022-10-10T03:31:47.021Z,101738.31
2022-10-10T03:34:16.142Z,101736.91
2022-10-10T03:36:45.004Z,101738.16
2022-10-10T03:39:13.886Z,101739.03
2022-10-10T03:41:42.931Z,101739.94
2022-10-10T03:44:12.019Z,101734.13
2022-10-10T03:46:40.793Z,101730.60
2022-10-10T03:49:09.848Z,101739.95
2022-10-10T03:51:38.854Z,101739.94
2022-10-10T03:54:07.731Z,101736.41
2022-10-10T03:56:36.901Z,101741.53
2022-10-10T03:59:06.109Z,101747.19
2022-10-10T04:01:35.159Z,101752.49
2022-10-10T04:04:05.064Z,101753.59
2022-10-10T04:06:33.932Z,101751.34
2022-10-10T04:09:03.729Z,101754.22
2022-10-10T04:11:32.914Z,101752.47
2022-10-10T04:14:02.106Z,101752.17
2022-10-10T04:16:32.835Z,101758.70
2022-10-10T04:19:02.496Z,101758.91
2022-10-10T04:21:33.837Z,101762.60
2022-10-10T04:24:05.651Z,101765.95
2022-10-10T04:26:34.544Z,101769.65
2022-10-10T04:29:03.968Z,101773.58
2022-10-10T04:31:33.137Z,101778.70
2022-10-10T04:34:02.124Z,101785.08
2022-10-10T04:36:31.329Z,101783.52
2022-10-10T04:39:00.763Z,101790.08
2022-10-10T04:41:29.701Z,101791.11
2022-10-10T04:43:59.088Z,101791.63
2022-10-10T04:46:28.210Z,101789.69
2022-10-10T04:48:57.416Z,101789.89
2022-10-10T04:51:26.619Z,101797.30
2022-10-10T04:53:55.611Z,101794.66
2022-10-10T04:56:25.834Z,101801.36
2022-10-10T04:58:54.778Z,101800.66
2022-10-10T05:01:23.892Z,101801.91
2022-10-10T05:03:53.540Z,101802.98
2022-10-10T05:06:22.412Z,101798.21
2022-10-10T05:08:51.356Z,101802.97
2022-10-10T05:11:20.242Z,101805.10
2022-10-10T05:13:50.165Z,101808.44
2022-10-10T05:16:19.512Z,101810.38
2022-10-10T05:18:48.589Z,101812.31
2022-10-10T05:21:17.492Z,101820.08
2022-10-10T05:23:50.997Z,101820.59
2022-10-10T05:26:20.564Z,101830.81
2022-10-10T05:28:49.744Z,101828.89
2022-10-10T05:31:18.882Z,101837.89
2022-10-10T05:33:48.078Z,101836.48
2022-10-10T05:36:17.163Z,101837.34
2022-10-10T05:38:46.166Z,101840.67
2022-10-10T05:41:15.684Z,101842.60
2022-10-10T05:43:44.527Z,101843.45
2022-10-10T05:46:14.322Z,101847.50
2022-10-10T05:48:43.506Z,101848.55
2022-10-10T05:51:12.633Z,101849.59
2022-10-10T05:53:41.725Z,101852.75
2022-10-10T05:56:11.436Z,101853.46
2022-10-10T05:58:40.381Z,101855.73
2022-10-10T06:01:09.658Z,101857.31
2022-10-10T06:03:38.965Z,101859.95
2022-10-10T06:06:08.692Z,101864.14
2022-10-10T06:08:37.489Z,101869.59
2022-10-10T06:11:07.817Z,101864.45
2022-10-10T06:13:38.215Z,101869.02
2022-10-10T06:16:07.764Z,101870.59
2022-10-10T06:18:36.943Z,101870.41
2022-10-10T06:21:08.029Z,101877.42
2022-10-10T06:23:37.244Z,101881.67
2022-10-10T06:26:06.398Z,101881.48
2022-10-10T06:28:35.610Z,101889.59
2022-10-10T06:31:07.826Z,101893.44
2022-10-10T06:33:42.686Z,101901.70
2022-10-10T06:36:18.629Z,101899.38
2022-10-10T06:38:47.534Z,101898.86
2022-10-10T06:41:16.340Z,101903.09
2022-10-10T06:43:45.627Z,101907.16
2022-10-10T06:46:14.705Z,101912.61
2022-10-10T06:48:43.606Z,101910.48
2022-10-10T06:51:15.244Z,101914.54
2022-10-10T06:53:44.726Z,101913.16
2022-10-10T06:56:24.966Z,101910.66
2022-10-10T06:58:56.769Z,101915.58
2022-10-10T07:01:26.646Z,101914.50
2022-10-10T07:03:56.059Z,101915.54
2022-10-10T07:06:25.481Z,101913.76
2022-10-10T07:08:54.850Z,101913.95
2022-10-10T07:11:23.958Z,101918.53
2022-10-10T07:13:53.651Z,101919.06
2022-10-10T07:16:23.135Z,101924.48
2022-10-10T07:18:52.344Z,101921.61
2022-10-10T07:21:21.357Z,101919.30
2022-10-10T07:23:50.518Z,101912.23
2022-10-10T07:26:21.742Z,101921.75
2022-10-10T07:28:50.841Z,101920.19
2022-10-10T07:31:20.029Z,101918.23
2022-10-10T07:33:50.757Z,101918.42
2022-10-10T07:36:20.573Z,101919.27
2022-10-10T07:38:51.868Z,101917.15
2022-10-10T07:41:21.323Z,101912.00
2022-10-10T07:43:56.162Z,101910.02
2022-10-10T07:46:25.462Z,101910.52
2022-10-10T07:48:55.356Z,101909.27
2022-10-10T07:51:24.321Z,101908.16
2022-10-10T07:53:53.474Z,101908.27
2022-10-10T07:56:22.709Z,101913.21
2022-10-10T07:58:52.027Z,101916.90
2022-10-10T08:01:21.067Z,101917.39
2022-10-10T08:03:50.200Z,101920.02
2022-10-10T08:06:19.171Z,101925.27
2022-10-10T08:08:51.720Z,101924.02
2022-10-10T08:11:22.399Z,101919.94
2022-10-10T08:13:51.561Z,101916.55
2022-10-10T08:16:20.917Z,101920.21
2022-10-10T08:18:50.090Z,101916.84
2022-10-10T08:21:19.031Z,101919.11
2022-10-10T08:23:48.154Z,101914.14
2022-10-10T08:26:19.423Z,101916.75
2022-10-10T08:28:48.919Z,101919.73
2022-10-10T08:31:20.655Z,101919.51
2022-10-10T08:33:51.564Z,101916.60
2022-10-10T08:36:23.230Z,101914.23
2022-10-10T08:38:56.782Z,101915.61
2022-10-10T08:41:35.005Z,101917.31
2022-10-10T08:44:12.625Z,101911.42
2022-10-10T08:46:48.996Z,101913.48
2022-10-10T08:49:43.031Z,101907.75
2022-10-10T08:52:33.588Z,101905.06
2022-10-10T08:55:07.501Z,101907.21
2022-10-10T08:57:47.497Z,101910.98
2022-10-10T09:00:19.059Z,101906.98
2022-10-10T09:03:32.991Z,101909.19
2022-10-10T09:06:14.153Z,101908.45
2022-10-10T09:08:53.126Z,101913.40
2022-10-10T09:11:44.895Z,101911.45
2022-10-10T09:14:25.338Z,101915.67
2022-10-10T09:17:17.723Z,101914.45
2022-10-10T09:20:00.143Z,101913.05
2022-10-10T09:22:33.560Z,101911.84
2022-10-10T09:25:08.273Z,101912.21
2022-10-10T09:27:42.025Z,101916.10
2022-10-10T09:30:18.158Z,101915.38
2022-10-10T09:32:55.497Z,101917.27
2022-10-10T09:35:27.357Z,101921.70
2022-10-10T09:38:03.150Z,101920.10
2022-10-10T09:40:53.872Z,101918.13
2022-10-10T09:43:29.325Z,101913.00
2022-10-10T09:45:59.431Z,101915.14
2022-10-10T09:48:32.680Z,101907.14
2022-10-10T09:51:04.638Z,101906.58
2022-10-10T09:53:34.487Z,101911.89
2022-10-10T09:56:15.929Z,101911.48
2022-10-10T09:58:47.198Z,101901.69
2022-10-10T10:01:19.643Z,101901.98
2022-10-10T10:04:29.510Z,101902.11
2022-10-10T10:07:08.375Z,101898.54
2022-10-10T10:09:38.853Z,101895.33
2022-10-10T10:12:07.936Z,101892.33
2022-10-10T10:14:38.717Z,101889.17
2022-10-10T10:17:10.058Z,101889.27
2022-10-10T10:19:41.183Z,101884.75
2022-10-10T10:22:41.157Z,101878.45
2022-10-10T10:25:32.507Z,101873.16
2022-10-10T10:28:21.140Z,101873.55
2022-10-10T10:30:57.444Z,101865.66
2022-10-10T10:33:43.349Z,101864.17
2022-10-10T10:36:25.610Z,101864.98
2022-10-10T10:39:00.840Z,101859.22
2022-10-10T10:41:35.987Z,101857.73
2022-10-10T10:44:24.491Z,101860.48
2022-10-10T10:47:05.976Z,101858.46
2022-10-10T10:49:43.459Z,101850.65
2022-10-10T10:52:26.129Z,101852.91
2022-10-10T10:55:17.840Z,101842.03
2022-10-10T10:58:48.781Z,101837.67
2022-10-10T11:01:28.798Z,101838.20
2022-10-10T11:05:18.389Z,101828.33
2022-10-10T11:09:56.446Z,101822.23
2022-10-10T11:12:50.143Z,101819.69
2022-10-10T11:15:30.777Z,101815.47
2022-10-10T11:18:13.639Z,101815.58
2022-10-10T11:20:45.949Z,101817.50
2022-10-10T11:23:21.757Z,101814.05
2022-10-10T11:26:03.333Z,101809.76
2022-10-10T11:28:37.498Z,101812.39
2022-10-10T11:31:17.069Z,101806.11
2022-10-10T11:33:51.175Z,101804.77
2022-10-10T11:36:23.762Z,101801.61
2022-10-10T11:38:57.590Z,101796.43
2022-10-10T11:41:33.909Z,101787.13
2022-10-10T11:44:12.287Z,101787.20
2022-10-10T11:47:22.088Z,101786.93
2022-10-10T11:49:57.278Z,101784.42
2022-10-10T11:52:59.844Z,101781.40
2022-10-10T11:55:41.553Z,101779.84
2022-10-10T11:58:28.160Z,101781.60
2022-10-10T12:01:00.872Z,101780.21
2022-10-10T12:03:30.078Z,101773.16
2022-10-10T12:06:04.470Z,101771.56
2022-10-10T12:08:39.681Z,101767.55
2022-10-10T12:11:17.329Z,101765.39
2022-10-10T12:13:56.628Z,101765.64
2022-10-10T12:16:30.790Z,101763.17
2022-10-10T12:19:05.883Z,101761.96
2022-10-10T12:21:56.968Z,101762.06
2022-10-10T12:24:27.333Z,101762.14
2022-10-10T12:27:24.541Z,101760.77
2022-10-10T12:30:26.945Z,101756.44
2022-10-10T12:32:57.012Z,101754.46
2022-10-10T12:35:36.186Z,101754.89
2022-10-10T12:38:13.349Z,101754.84
2022-10-10T12:41:11.557Z,101754.85
2022-10-10T12:43:48.254Z,101757.69
2022-10-10T12:46:29.904Z,101755.76
2022-10-10T12:49:06.323Z,101753.80
2022-10-10T12:51:36.880Z,101747.52
2022-10-10T12:54:07.945Z,101749.30
2022-10-10T12:56:43.574Z,101742.74
2022-10-10T12:59:23.955Z,101743.43
2022-10-10T13:01:58.322Z,101741.27
2022-10-10T13:04:28.232Z,101740.28
2022-10-10T13:07:01.198Z,101737.85
2022-10-10T13:09:43.921Z,101736.63
2022-10-10T13:12:23.569Z,101738.77
2022-10-10T13:14:52.806Z,101736.88
2022-10-10T13:17:32.948Z,101736.07
2022-10-10T13:20:05.578Z,101735.45
2022-10-10T13:22:37.191Z,101733.35
2022-10-10T13:25:11.823Z,101731.20
2022-10-10T13:27:45.727Z,101723.69
2022-10-10T13:30:20.214Z,101724.80
2022-10-10T13:32:54.592Z,101723.10
2022-10-10T13:35:50.791Z,101720.30
2022-10-10T13:38:25.828Z,101718.58
2022-10-10T13:40:55.510Z,101718.61
2022-10-10T13:43:27.098Z,101714.18
2022-10-10T13:46:01.977Z,101712.85
2022-10-10T13:48:40.569Z,101714.86
2022-10-10T13:51:11.287Z,101716.11
2022-10-10T13:53:51.618Z,101712.69
2022-10-10T13:56:26.937Z,101714.74
2022-10-10T13:59:04.948Z,101718.77
2022-10-10T14:01:37.031Z,101722.65
2022-10-10T14:04:22.138Z,101723.73
2022-10-10T14:06:58.880Z,101728.13
2022-10-10T14:09:31.825Z,101727.17
2022-10-10T14:12:03.900Z,101723.29
2022-10-10T14:14:43.586Z,101711.84
2022-10-10T14:17:12.776Z,101709.91
2022-10-10T14:19:43.152Z,101713.41
2022-10-10T14:22:12.115Z,101706.40
2022-10-10T14:24:41.208Z,101703.77
2022-10-10T14:27:16.697Z,101704.23
2022-10-10T14:29:46.102Z,101708.25
2022-10-10T14:32:16.120Z,101707.52
2022-10-10T14:34:45.246Z,101710.79
2022-10-10T14:37:19.620Z,101706.02
2022-10-10T14:39:48.923Z,101709.58
2022-10-10T14:42:19.846Z,101710.26
2022-10-10T14:44:49.636Z,101706.98
2022-10-10T14:47:20.789Z,101709.73
2022-10-10T14:49:52.148Z,101706.95
2022-10-10T14:52:21.181Z,101707.43
2022-10-10T14:54:50.166Z,101706.61
2022-10-10T14:57:19.562Z,101700.98
2022-10-10T14:59:50.219Z,101701.29
2022-10-10T15:02:21.508Z,101703.52
2022-10-10T15:04:51.482Z,101702.45
2022-10-10T15:07:20.718Z,101699.56
2022-10-10T15:10:30.852Z,101695.88
2022-10-10T15:12:41.067Z,101694.04
2022-10-10T15:15:12.588Z,101695.85
2022-10-10T15:17:42.226Z,101694.80
2022-10-10T15:20:13.205Z,101697.15
2022-10-10T15:22:44.850Z,101695.26
2022-10-10T15:25:13.720Z,101694.90
2022-10-10T15:27:42.716Z,101698.10
2022-10-10T15:30:13.894Z,101693.32
2022-10-10T15:32:42.827Z,101694.94
2022-10-10T15:35:15.838Z,101695.09
2022-10-10T15:37:45.798Z,101703.63
2022-10-10T15:40:17.751Z,101702.19
2022-10-10T15:42:47.007Z,101698.26
2022-10-10T15:45:37.057Z,101701.48
2022-10-10T15:48:06.561Z,101700.77
2022-10-10T15:50:38.654Z,101702.19
2022-10-10T15:53:08.192Z,101701.67
2022-10-10T15:55:42.346Z,101700.23
2022-10-10T15:58:11.773Z,101698.04
2022-10-10T16:00:42.267Z,101701.20
2022-10-10T16:03:11.373Z,101700.06
2022-10-10T16:05:41.961Z,101699.38
2022-10-10T16:08:11.958Z,101703.61
2022-10-10T16:10:43.326Z,101702.34
2022-10-10T16:13:12.461Z,101703.16
2022-10-10T16:15:41.512Z,101707.91
2022-10-10T16:18:10.685Z,101710.35
2022-10-10T16:20:39.779Z,101708.86
2022-10-10T16:23:08.728Z,101707.15
2022-10-10T16:25:37.507Z,101707.09
2022-10-10T16:28:06.527Z,101706.27
2022-10-10T16:30:35.772Z,101703.33
2022-10-10T16:33:04.889Z,101706.20
2022-10-10T16:35:37.448Z,101707.53
2022-10-10T16:38:06.572Z,101705.80
2022-10-10T16:40:36.386Z,101705.86
2022-10-10T16:43:05.538Z,101706.15
2022-10-10T16:45:34.649Z,101704.08
2022-10-10T16:48:03.833Z,101703.96
2022-10-10T16:50:32.700Z,101708.10
2022-10-10T16:53:01.729Z,101711.15
2022-10-10T16:55:30.629Z,101715.81
2022-10-10T16:57:59.478Z,101718.31
2022-10-10T17:00:28.388Z,101719.65
2022-10-10T17:02:57.141Z,101716.77
2022-10-10T17:05:26.276Z,101720.56
2022-10-10T17:07:55.507Z,101720.58
2022-10-10T17:10:24.634Z,101721.38
2022-10-10T17:12:53.805Z,101718.98
2022-10-10T17:15:22.927Z,101714.10
2022-10-10T17:17:51.925Z,101714.85
2022-10-10T17:20:21.145Z,101710.85
2022-10-10T17:22:50.085Z,101717.98
2022-10-10T17:25:19.218Z,101718.90
2022-10-10T17:27:48.037Z,101724.63
2022-10-10T17:30:17.006Z,101725.59
2022-10-10T17:32:45.828Z,101724.38
2022-10-10T17:35:14.631Z,101727.66
2022-10-10T17:37:43.977Z,101728.09
2022-10-10T17:40:13.505Z,101726.18
2022-10-10T17:42:42.329Z,101720.41
2022-10-10T17:45:11.757Z,101716.40
2022-10-10T17:47:40.765Z,101718.73
2022-10-10T17:50:12.683Z,101724.81
2022-10-10T17:52:41.704Z,101727.84
2022-10-10T17:55:10.771Z,101732.62
2022-10-10T17:57:44.588Z,101728.59
2022-10-10T18:00:16.860Z,101726.16
2022-10-10T18:02:48.298Z,101725.66
2022-10-10T18:05:17.635Z,101724.13
2022-10-10T18:07:47.198Z,101724.17
2022-10-10T18:10:16.403Z,101719.97
2022-10-10T18:12:45.453Z,101718.80
2022-10-10T18:15:14.457Z,101720.95
2022-10-10T18:17:43.259Z,101724.52
2022-10-10T18:20:13.331Z,101730.08
2022-10-10T18:23:00.452Z,101730.77
2022-10-10T18:28:34.639Z,101733.70
2022-10-10T18:31:19.169Z,101731.61
2022-10-10T18:33:48.969Z,101730.05
2022-10-10T18:36:21.835Z,101723.88
2022-10-10T18:39:06.281Z,101724.79
2022-10-10T18:41:35.781Z,101719.36
2022-10-10T18:44:07.775Z,101717.96
2022-10-10T18:46:37.551Z,101717.63
2022-10-10T18:49:11.418Z,101708.63
2022-10-10T18:51:43.677Z,101713.05
2022-10-10T18:54:15.529Z,101708.83
2022-10-10T18:56:47.675Z,101709.23
2022-10-10T18:59:21.756Z,101712.23
2022-10-10T19:01:51.917Z,101713.67
2022-10-10T19:04:22.056Z,101708.56
2022-10-10T19:06:56.832Z,101711.58
2022-10-10T19:09:27.330Z,101710.38
2022-10-10T19:11:58.924Z,101711.11
2022-10-10T19:14:28.636Z,101713.95
2022-10-10T19:16:57.689Z,101715.73
2022-10-10T19:19:28.966Z,101717.88
2022-10-10T19:21:58.626Z,101715.26
2022-10-10T19:24:30.602Z,101717.94
2022-10-10T19:27:00.323Z,101719.02
2022-10-10T19:29:29.894Z,101721.54
2022-10-10T19:31:59.202Z,101726.33
2022-10-10T19:34:29.946Z,101720.39
2022-10-10T19:37:01.326Z,101719.89
2022-10-10T19:39:39.251Z,101720.98
2022-10-10T19:42:08.691Z,101722.23
2022-10-10T19:44:38.199Z,101720.31
2022-10-10T19:47:10.450Z,101717.65
2022-10-10T19:49:42.415Z,101716.44
2022-10-10T19:52:11.448Z,101719.27
2022-10-10T19:54:45.588Z,101715.79
2022-10-10T19:57:15.028Z,101712.06
2022-10-10T19:59:49.472Z,101711.36
2022-10-10T20:02:22.726Z,101714.02
2022-10-10T20:04:55.752Z,101715.62
2022-10-10T20:07:25.469Z,101715.10
2022-10-10T20:09:57.975Z,101717.91
2022-10-10T20:12:27.202Z,101715.94
2022-10-10T20:14:56.274Z,101720.52
2022-10-10T20:17:26.206Z,101722.30
2022-10-10T20:19:55.103Z,101722.83
2022-10-10T20:22:24.417Z,101722.09
2022-10-10T20:24:53.674Z,101715.73
2022-10-10T20:27:22.791Z,101716.77
2022-10-10T20:29:52.196Z,101712.15
2022-10-10T20:32:21.531Z,101715.46
2022-10-10T20:34:50.765Z,101716.70
2022-10-10T20:37:19.933Z,101717.73
2022-10-10T20:39:48.787Z,101715.59
2022-10-10T20:42:17.995Z,101712.94
2022-10-10T20:44:49.197Z,101705.69
2022-10-10T20:47:18.112Z,101703.73
2022-10-10T20:49:47.009Z,101705.65
2022-10-10T20:52:15.987Z,101708.65
2022-10-10T20:54:44.832Z,101712.19
2022-10-10T20:57:17.186Z,101713.58
2022-10-10T20:59:46.287Z,101710.91
2022-10-10T21:02:19.252Z,101714.61
2022-10-10T21:04:49.061Z,101715.97
2022-10-10T21:07:18.191Z,101715.95
2022-10-10T21:09:47.189Z,101717.86
2022-10-10T21:12:16.565Z,101714.52
2022-10-10T21:14:45.470Z,101715.93
2022-10-10T21:17:14.291Z,101711.15
2022-10-10T21:19:43.690Z,101711.12
2022-10-10T21:22:12.589Z,101708.31
2022-10-10T21:24:41.441Z,101705.13
2022-10-10T21:27:10.673Z,101704.06
2022-10-10T21:29:39.665Z,101699.46
2022-10-10T21:32:08.969Z,101701.74
2022-10-10T21:34:38.523Z,101698.92
2022-10-10T21:37:08.602Z,101697.68
2022-10-10T21:39:47.867Z,101698.93
2022-10-10T21:42:16.995Z,101697.36
2022-10-10T21:44:47.548Z,101696.50
2022-10-10T21:47:16.650Z,101692.63
2022-10-10T21:49:45.658Z,101691.56
2022-10-10T21:52:16.471Z,101691.91
2022-10-10T21:54:46.240Z,101695.09
2022-10-10T21:57:17.611Z,101694.57
2022-10-10T21:59:47.041Z,101689.42
2022-10-10T22:02:15.918Z,101678.48
2022-10-10T22:04:49.422Z,101676.20
2022-10-10T22:07:23.244Z,101672.50
2022-10-10T22:09:55.836Z,101672.67
2022-10-10T22:12:25.362Z,101671.45
2022-10-10T22:14:54.508Z,101671.27
2022-10-10T22:17:23.793Z,101669.69
2022-10-10T22:19:53.044Z,101668.25
2022-10-10T22:22:22.132Z,101666.14
2022-10-10T22:24:51.210Z,101667.20
2022-10-10T22:27:20.480Z,101665.77
2022-10-10T22:29:49.587Z,101660.84
2022-10-10T22:32:19.031Z,101660.30
2022-10-10T22:34:51.132Z,101654.84
2022-10-10T22:37:20.358Z,101654.33
2022-10-10T22:39:49.457Z,101654.16
2022-10-10T22:42:21.883Z,101649.06
2022-10-10T22:44:51.375Z,101643.96
2022-10-10T22:47:21.257Z,101643.96
2022-10-10T22:49:50.637Z,101647.75
2022-10-10T22:52:19.539Z,101648.66
2022-10-10T22:54:48.515Z,101647.44
2022-10-10T22:57:17.830Z,101642.19
2022-10-10T22:59:48.118Z,101645.97
2022-10-10T23:02:18.268Z,101643.53
2022-10-10T23:04:47.365Z,101637.58
2022-10-10T23:07:19.408Z,101637.80
2022-10-10T23:09:49.149Z,101637.85
2022-10-10T23:12:18.220Z,101637.90
2022-10-10T23:14:48.472Z,101634.08
2022-10-10T23:17:18.582Z,101633.01
2022-10-10T23:19:48.445Z,101634.42
2022-10-10T23:22:18.251Z,101633.56
2022-10-10T23:24:47.997Z,101630.41
2022-10-10T23:27:17.146Z,101626.73
2022-10-10T23:29:46.316Z,101626.55
2022-10-10T23:32:15.566Z,101629.90
2022-10-10T23:34:44.655Z,101626.27
2022-10-10T23:37:13.385Z,101627.04
2022-10-10T23:39:47.469Z,101626.35
2022-10-10T23:42:16.305Z,101626.39
2022-10-10T23:44:45.216Z,101628.36
2022-10-10T23:47:14.378Z,101626.24
2022-10-10T23:49:43.594Z,101627.27
2022-10-10T23:52:13.169Z,101627.42
2022-10-10T23:54:46.938Z,101627.83
2022-10-10T23:57:16.072Z,101627.70
2022-10-10T23:59:45.208Z,101624.39
